createdAt,value
2022-12-18T00:04:30.906Z,101676.81
2022-12-18T00:09:39.703Z,101674.84
2022-12-18T00:14:41.943Z,101681.44
2022-12-18T00:19:43.396Z,101674.09
2022-12-18T00:24:44.878Z,101684.78
2022-12-18T00:29:46.336Z,101687.34
2022-12-18T00:34:47.758Z,101679.19
2022-12-18T00:39:49.394Z,101695.72
2022-12-18T00:44:50.995Z,101699.41
2022-12-18T00:49:52.457Z,101687.41
2022-12-18T00:54:53.931Z,101672.38
2022-12-18T00:59:55.369Z,101681.75
2022-12-18T01:04:56.769Z,101687.06
2022-12-18T01:09:58.194Z,101669.34
2022-12-18T01:14:59.723Z,101670.81
2022-12-18T01:20:01.378Z,101675.50
2022-12-18T01:25:04.091Z,101670.09
2022-12-18T01:30:06.984Z,101664.97
2022-12-18T01:35:08.793Z,101672.22
2022-12-18T01:40:10.657Z,101688.69
2022-12-18T01:45:12.056Z,101695.34
2022-12-18T01:50:37.257Z,101692.94
2022-12-18T01:55:46.194Z,101687.00
2022-12-18T02:00:47.660Z,101680.41
2022-12-18T02:06:10.732Z,101695.03
2022-12-18T02:11:29.093Z,101693.28
2022-12-18T02:16:45.057Z,101701.47
2022-12-18T02:21:59.034Z,101714.13
2022-12-18T02:27:06.963Z,101695.56
2022-12-18T02:32:15.135Z,101697.06
2022-12-18T02:37:19.463Z,101698.94
2022-12-18T02:42:21.063Z,101699.03
2022-12-18T02:47:25.771Z,101695.69
2022-12-18T02:52:35.847Z,101694.16
2022-12-18T02:57:42.904Z,101695.91
2022-12-18T03:03:00.026Z,101705.94
2022-12-18T03:08:09.530Z,101715.19
2022-12-18T03:13:18.672Z,101698.84
2022-12-18T03:18:28.566Z,101704.78
2022-12-18T03:23:33.393Z,101702.47
2022-12-18T03:28:39.658Z,101707.63
2022-12-18T03:34:00.382Z,101706.09
2022-12-18T03:39:01.838Z,101711.13
2022-12-18T03:44:13.307Z,101711.03
2022-12-18T03:49:26.280Z,101702.31
2022-12-18T03:54:29.375Z,101694.81
2022-12-18T03:59:32.542Z,101677.38
2022-12-18T04:04:36.601Z,101687.28
2022-12-18T04:09:40.107Z,101686.00
2022-12-18T04:14:42.948Z,101697.91
2022-12-18T04:19:44.377Z,101701.22
2022-12-18T04:24:45.764Z,101689.63
2022-12-18T04:29:47.222Z,101689.88
2022-12-18T04:34:48.733Z,101680.81
2022-12-18T04:39:50.228Z,101691.72
2022-12-18T04:44:51.627Z,101695.56
2022-12-18T04:49:53.168Z,101697.88
2022-12-18T04:54:54.611Z,101706.25
2022-12-18T04:59:56.047Z,101690.66
2022-12-18T05:04:57.565Z,101698.84
2022-12-18T05:09:59.017Z,101719.94
2022-12-18T05:15:00.464Z,101715.16
2022-12-18T05:20:01.932Z,101714.91
2022-12-18T05:25:03.461Z,101718.00
2022-12-18T05:30:05.428Z,101704.44
2022-12-18T05:35:09.737Z,101708.34
2022-12-18T05:40:12.609Z,101711.22
2022-12-18T05:45:14.016Z,101702.31
2022-12-18T05:50:15.500Z,101716.38
2022-12-18T05:55:16.969Z,101723.09
2022-12-18T06:00:18.670Z,101716.94
2022-12-18T06:05:20.117Z,101732.59
2022-12-18T06:10:21.723Z,101732.34
2022-12-18T06:15:23.268Z,101736.44
2022-12-18T06:20:26.903Z,101730.91
2022-12-18T06:25:32.176Z,101757.00
2022-12-18T06:30:33.839Z,101771.53
2022-12-18T06:35:35.316Z,101766.16
2022-12-18T06:40:39.444Z,101783.38
2022-12-18T06:45:41.088Z,101781.28
2022-12-18T06:50:45.629Z,101783.41
2022-12-18T06:55:47.147Z,101783.88
2022-12-18T07:00:48.642Z,101779.63
2022-12-18T07:05:50.169Z,101783.88
2022-12-18T07:10:55.955Z,101788.69
2022-12-18T07:16:06.835Z,101787.06
2022-12-18T07:21:14.306Z,101790.78
2022-12-18T07:26:18.223Z,101777.97
2022-12-18T07:31:22.063Z,101790.03
2022-12-18T07:36:23.752Z,101789.94
2022-12-18T07:41:25.171Z,101797.38
2022-12-18T07:46:26.589Z,101810.03
2022-12-18T07:51:27.984Z,101813.69
2022-12-18T07:56:30.864Z,101819.88
2022-12-18T08:01:34.550Z,101822.72
2022-12-18T08:06:36.337Z,101823.31
2022-12-18T08:11:37.755Z,101839.06
2022-12-18T08:16:39.276Z,101835.94
2022-12-18T08:21:40.815Z,101838.63
2022-12-18T08:26:43.653Z,101833.75
2022-12-18T08:31:53.434Z,101820.59
2022-12-18T08:36:54.976Z,101816.22
2022-12-18T08:42:15.052Z,101814.91
2022-12-18T08:47:16.485Z,101795.22
2022-12-18T08:52:18.010Z,101791.34
2022-12-18T08:57:19.456Z,101785.06
2022-12-18T09:02:21.142Z,101781.66
2022-12-18T09:07:22.711Z,101780.78
2022-12-18T09:12:24.121Z,101778.72
2022-12-18T09:17:25.614Z,101804.16
2022-12-18T09:22:27.012Z,101794.22
2022-12-18T09:27:28.446Z,101806.19
2022-12-18T09:32:29.891Z,101813.75
2022-12-18T09:37:31.326Z,101833.28
2022-12-18T09:42:33.100Z,101834.41
2022-12-18T09:47:39.957Z,101815.13
2022-12-18T09:52:46.344Z,101836.13
2022-12-18T09:57:54.335Z,101836.13
2022-12-18T10:03:09.839Z,101853.03
2022-12-18T10:08:22.339Z,101850.63
2022-12-18T10:13:39.438Z,101850.53
2022-12-18T10:18:56.111Z,101844.69
2022-12-18T10:24:14.181Z,101843.34
2022-12-18T10:29:17.208Z,101824.84
2022-12-18T10:34:18.804Z,101821.56
2022-12-18T10:39:23.361Z,101810.78
2022-12-18T10:44:28.773Z,101825.28
2022-12-18T10:49:33.733Z,101828.28
2022-12-18T10:54:36.387Z,101807.50
2022-12-18T10:59:55.618Z,101801.72
2022-12-18T11:04:57.010Z,101804.31
2022-12-18T11:10:04.455Z,101814.28
2022-12-18T11:15:07.117Z,101822.91
2022-12-18T11:20:21.497Z,101817.47
2022-12-18T11:25:33.195Z,101815.69
2022-12-18T11:30:37.891Z,101804.97
2022-12-18T11:36:04.747Z,101804.38
2022-12-18T11:41:49.791Z,101795.75
2022-12-18T11:47:03.126Z,101798.03
2022-12-18T11:52:17.588Z,101778.53
2022-12-18T11:57:22.228Z,101771.53
2022-12-18T12:02:40.691Z,101763.19
2022-12-18T12:08:04.410Z,101748.53
2022-12-18T12:13:50.211Z,101739.41
2022-12-18T12:19:15.121Z,101731.53
2022-12-18T12:24:58.512Z,101746.72
2022-12-18T12:30:24.321Z,101748.97
2022-12-18T12:35:45.317Z,101760.25
2022-12-18T12:41:00.514Z,101761.25
2022-12-18T12:46:10.931Z,101758.03
2022-12-18T12:51:24.789Z,101747.34
2022-12-18T12:56:39.216Z,101752.69
2022-12-18T13:02:20.468Z,101743.44
2022-12-18T13:07:29.962Z,101719.72
2022-12-18T13:12:51.416Z,101716.19
2022-12-18T13:18:05.168Z,101702.84
2022-12-18T13:23:25.216Z,101689.03
2022-12-18T13:28:33.809Z,101682.03
2022-12-18T13:33:35.720Z,101671.81
2022-12-18T13:38:42.188Z,101654.50
2022-12-18T13:43:46.799Z,101654.63
2022-12-18T13:49:02.724Z,101659.97
2022-12-18T13:54:26.601Z,101660.03
2022-12-18T13:59:38.719Z,101655.28
2022-12-18T14:04:42.678Z,101657.09
2022-12-18T14:09:47.646Z,101660.31
2022-12-18T14:14:55.105Z,101658.66
2022-12-18T14:19:57.225Z,101661.19
2022-12-18T14:25:14.106Z,101659.25
2022-12-18T14:30:24.984Z,101661.25
2022-12-18T14:35:26.751Z,101666.09
2022-12-18T14:40:29.231Z,101662.91
2022-12-18T14:45:42.066Z,101653.69
2022-12-18T14:50:44.817Z,101647.56
2022-12-18T14:55:49.180Z,101655.59
2022-12-18T15:00:51.048Z,101644.47
2022-12-18T15:05:52.766Z,101642.41
2022-12-18T15:10:54.339Z,101656.72
2022-12-18T15:15:59.289Z,101653.59
2022-12-18T15:21:09.920Z,101657.22
2022-12-18T15:26:13.362Z,101651.72
2022-12-18T15:31:15.894Z,101655.41
2022-12-18T15:36:26.151Z,101654.22
2022-12-18T15:41:28.422Z,101647.94
2022-12-18T15:46:30.077Z,101653.19
2022-12-18T15:51:37.606Z,101652.13
2022-12-18T15:56:57.831Z,101660.38
2022-12-18T16:02:00.255Z,101660.91
2022-12-18T16:07:23.024Z,101670.31
2022-12-18T16:12:25.291Z,101663.13
2022-12-18T16:17:26.758Z,101665.25
2022-12-18T16:22:30.665Z,101666.91
2022-12-18T16:27:32.057Z,101661.69
2022-12-18T16:32:33.586Z,101663.31
2022-12-18T16:37:35.034Z,101653.44
2022-12-18T16:42:39.059Z,101650.41
2022-12-18T16:47:40.965Z,101651.69
2022-12-18T16:52:42.518Z,101650.78
2022-12-18T16:57:43.930Z,101654.75
2022-12-18T17:02:47.561Z,101643.50
2022-12-18T17:07:49.221Z,101640.44
2022-12-18T17:12:51.300Z,101635.56
2022-12-18T17:17:52.707Z,101633.44
2022-12-18T17:22:54.239Z,101641.09
2022-12-18T17:27:55.705Z,101638.66
2022-12-18T17:32:57.199Z,101625.56
2022-12-18T17:37:58.661Z,101618.25
2022-12-18T17:43:00.158Z,101629.16
2022-12-18T17:48:01.612Z,101638.25
2022-12-18T17:53:03.813Z,101634.84
2022-12-18T17:58:05.320Z,101623.38
2022-12-18T18:03:06.988Z,101617.69
2022-12-18T18:08:08.621Z,101617.78
2022-12-18T18:13:47.219Z,101638.94
2022-12-18T18:18:48.980Z,101638.25
2022-12-18T18:23:50.474Z,101635.19
2022-12-18T18:28:54.304Z,101623.66
2022-12-18T18:33:56.344Z,101622.09
2022-12-18T18:39:01.211Z,101609.56
2022-12-18T18:44:02.890Z,101589.72
2022-12-18T18:49:05.620Z,101586.00
2022-12-18T18:54:07.318Z,101578.47
2022-12-18T18:59:08.842Z,101571.00
2022-12-18T19:04:10.708Z,101562.44
2022-12-18T19:09:12.530Z,101564.03
2022-12-18T19:14:15.645Z,101558.78
2022-12-18T19:19:21.032Z,101554.88
2022-12-18T19:24:22.864Z,101546.91
2022-12-18T19:29:24.374Z,101549.41
2022-12-18T19:34:25.913Z,101550.56
2022-12-18T19:39:27.514Z,101560.84
2022-12-18T19:44:29.061Z,101552.53
2022-12-18T19:49:32.719Z,101544.06
2022-12-18T19:54:34.266Z,101528.00
2022-12-18T19:59:36.930Z,101517.47
2022-12-18T20:04:40.962Z,101549.09
2022-12-18T20:09:42.393Z,101552.06
2022-12-18T20:14:43.870Z,101548.53
2022-12-18T20:19:45.362Z,101562.22
2022-12-18T20:24:49.580Z,101567.41
2022-12-18T20:29:51.780Z,101559.13
2022-12-18T20:34:53.215Z,101568.31
2022-12-18T20:39:55.089Z,101569.22
2022-12-18T20:44:56.968Z,101558.56
2022-12-18T20:49:58.572Z,101548.69
2022-12-18T20:55:06.508Z,101544.22
2022-12-18T21:00:08.652Z,101540.16
2022-12-18T21:05:11.505Z,101524.66
2022-12-18T21:10:13.055Z,101537.78
2022-12-18T21:15:14.625Z,101521.00
2022-12-18T21:20:17.896Z,101504.56
2022-12-18T21:25:20.403Z,101502.00
2022-12-18T21:30:21.982Z,101519.31
2022-12-18T21:35:23.395Z,101551.09
2022-12-18T21:40:26.887Z,101504.59
2022-12-18T21:45:28.597Z,101501.72
2022-12-18T21:50:30.072Z,101496.44
2022-12-18T21:55:31.584Z,101492.38
2022-12-18T22:00:33.028Z,101500.19
2022-12-18T22:05:34.481Z,101521.50
2022-12-18T22:10:36.733Z,101538.38
2022-12-18T22:15:38.291Z,101532.88
2022-12-18T22:20:39.812Z,101525.38
2022-12-18T22:25:41.389Z,101507.59
2022-12-18T22:30:42.875Z,101524.53
2022-12-18T22:35:44.738Z,101567.56
2022-12-18T22:40:46.462Z,101558.16
2022-12-18T22:45:49.009Z,101550.22
2022-12-18T22:50:50.954Z,101554.75
2022-12-18T22:56:01.430Z,101555.53
2022-12-18T23:01:03.483Z,101540.81
2022-12-18T23:06:09.303Z,101545.69
2022-12-18T23:11:11.878Z,101543.00
2022-12-18T23:16:16.053Z,101537.56
2022-12-18T23:21:19.702Z,101510.13
2022-12-18T23:26:23.772Z,101510.00
2022-12-18T23:31:30.292Z,101507.19
2022-12-18T23:36:38.397Z,101503.88
2022-12-18T23:41:47.528Z,101497.06
2022-12-18T23:46:49.082Z,101495.28
2022-12-18T23:51:50.854Z,101484.91
2022-12-18T23:56:52.313Z,101478.47
